createdAt,value
2022-12-03T00:02:40.803Z,1.97
2022-12-03T00:07:39.271Z,1.98
2022-12-03T00:12:39.321Z,1.98
2022-12-03T00:17:39.324Z,1.99
2022-12-03T00:22:39.203Z,2.01
2022-12-03T00:27:39.243Z,2.01
2022-12-03T00:32:39.153Z,2.00
2022-12-03T00:37:39.269Z,2.00
2022-12-03T00:42:39.206Z,2.00
2022-12-03T00:47:39.253Z,2.01
2022-12-03T00:52:39.280Z,2.02
2022-12-03T00:57:39.214Z,2.00
2022-12-03T01:02:39.896Z,1.99
2022-12-03T01:07:39.252Z,1.99
2022-12-03T01:12:39.412Z,2.01
2022-12-03T01:17:39.318Z,2.00
2022-12-03T01:22:39.364Z,2.02
2022-12-03T01:27:39.378Z,2.06
2022-12-03T01:32:39.360Z,2.06
2022-12-03T01:37:39.349Z,2.06
2022-12-03T01:42:40.939Z,2.05
2022-12-03T01:47:39.505Z,2.05
2022-12-03T01:52:39.753Z,2.03
2022-12-03T01:57:43.725Z,2.02
2022-12-03T02:02:39.755Z,2.00
2022-12-03T02:07:39.432Z,2.01
2022-12-03T02:12:47.746Z,2.02
2022-12-03T02:17:39.703Z,2.04
2022-12-03T02:22:55.190Z,2.06
2022-12-03T02:27:39.994Z,2.06
2022-12-03T02:32:39.479Z,2.08
2022-12-03T02:37:40.893Z,2.05
2022-12-03T02:42:41.669Z,2.04
2022-12-03T02:47:43.493Z,2.06
2022-12-03T02:52:41.738Z,2.07
2022-12-03T02:57:40.171Z,2.07
2022-12-03T03:02:42.084Z,2.06
2022-12-03T03:07:40.801Z,2.06
2022-12-03T03:12:40.216Z,2.06
2022-12-03T03:17:40.151Z,2.07
2022-12-03T03:22:41.171Z,2.08
2022-12-03T03:27:40.944Z,2.09
2022-12-03T03:32:41.217Z,2.10
2022-12-03T03:37:40.327Z,2.08
2022-12-03T03:42:39.621Z,2.09
2022-12-03T03:47:41.061Z,2.09
2022-12-03T03:52:40.612Z,2.10
2022-12-03T03:57:39.809Z,2.08
2022-12-03T04:02:41.356Z,2.08
2022-12-03T04:07:39.668Z,2.08
2022-12-03T04:12:39.681Z,2.08
2022-12-03T04:17:39.680Z,2.06
2022-12-03T04:22:39.675Z,2.05
2022-12-03T04:27:39.745Z,2.06
2022-12-03T04:32:39.703Z,2.08
2022-12-03T04:37:39.774Z,2.07
2022-12-03T04:42:39.707Z,2.08
2022-12-03T04:47:40.115Z,2.04
2022-12-03T04:52:39.739Z,2.00
2022-12-03T04:57:39.806Z,1.98
2022-12-03T05:02:40.334Z,1.95
2022-12-03T05:07:39.795Z,1.92
2022-12-03T05:12:39.805Z,1.91
2022-12-03T05:17:39.875Z,1.87
2022-12-03T05:22:39.854Z,1.86
2022-12-03T05:27:39.868Z,1.85
2022-12-03T05:32:39.889Z,1.82
2022-12-03T05:37:39.893Z,1.81
2022-12-03T05:42:40.034Z,1.76
2022-12-03T05:47:39.870Z,1.72
2022-12-03T05:52:40.257Z,1.68
2022-12-03T05:57:40.027Z,1.69
2022-12-03T06:02:40.922Z,1.69
2022-12-03T06:07:40.358Z,1.69
2022-12-03T06:12:40.271Z,1.69
2022-12-03T06:17:40.382Z,1.70
2022-12-03T06:22:39.995Z,1.71
2022-12-03T06:27:40.089Z,1.67
2022-12-03T06:32:40.216Z,1.66
2022-12-03T06:37:39.961Z,1.65
2022-12-03T06:42:40.010Z,1.65
2022-12-03T06:47:39.999Z,1.63
2022-12-03T06:52:40.040Z,1.64
2022-12-03T06:57:40.136Z,1.64
2022-12-03T07:02:40.602Z,1.62
2022-12-03T07:07:40.139Z,1.64
2022-12-03T07:12:40.062Z,1.63
2022-12-03T07:17:40.078Z,1.64
2022-12-03T07:22:40.088Z,1.65
2022-12-03T07:27:40.209Z,1.64
2022-12-03T07:32:40.193Z,1.66
2022-12-03T07:37:40.129Z,1.65
2022-12-03T07:42:40.145Z,1.67
2022-12-03T07:47:40.207Z,1.67
2022-12-03T07:52:40.142Z,1.65
2022-12-03T07:57:40.222Z,1.64
2022-12-03T08:02:41.005Z,1.66
2022-12-03T08:07:40.242Z,1.69
2022-12-03T08:12:40.492Z,1.69
2022-12-03T08:17:40.958Z,1.68
2022-12-03T08:22:41.868Z,1.72
2022-12-03T08:27:40.341Z,1.71
2022-12-03T08:32:40.973Z,1.72
2022-12-03T08:37:40.588Z,1.71
2022-12-03T08:42:40.265Z,1.69
2022-12-03T08:47:40.348Z,1.67
2022-12-03T08:52:40.273Z,1.64
2022-12-03T08:57:40.403Z,1.67
2022-12-03T09:02:47.068Z,1.70
2022-12-03T09:07:40.410Z,1.72
2022-12-03T09:12:40.428Z,1.74
2022-12-03T09:17:40.368Z,1.75
2022-12-03T09:22:40.424Z,1.74
2022-12-03T09:27:40.364Z,1.74
2022-12-03T09:32:40.536Z,1.71
2022-12-03T09:37:40.472Z,1.68
2022-12-03T09:42:40.627Z,1.68
2022-12-03T09:47:43.759Z,1.69
2022-12-03T09:52:40.558Z,1.66
2022-12-03T09:57:40.455Z,1.68
2022-12-03T10:02:42.734Z,1.68
2022-12-03T10:07:41.423Z,1.69
2022-12-03T10:12:40.555Z,1.67
2022-12-03T10:17:40.648Z,1.70
2022-12-03T10:22:40.664Z,1.73
2022-12-03T10:27:41.321Z,1.76
2022-12-03T10:32:44.259Z,1.77
2022-12-03T10:37:53.704Z,1.83
2022-12-03T10:42:40.676Z,1.83
2022-12-03T10:47:42.147Z,1.84
2022-12-03T10:52:40.710Z,1.78
2022-12-03T10:57:45.365Z,1.71
2022-12-03T11:02:42.040Z,1.74
2022-12-03T11:07:42.333Z,1.71
2022-12-03T11:12:41.138Z,1.65
2022-12-03T11:17:44.049Z,1.66
2022-12-03T11:22:43.064Z,1.64
2022-12-03T11:27:40.637Z,1.58
2022-12-03T11:32:41.638Z,1.54
2022-12-03T11:37:41.085Z,1.49
2022-12-03T11:42:41.090Z,1.53
2022-12-03T11:47:53.673Z,1.54
2022-12-03T11:52:44.029Z,1.53
2022-12-03T11:57:40.986Z,1.51
2022-12-03T12:02:41.818Z,1.54
2022-12-03T12:07:40.811Z,1.52
2022-12-03T12:12:45.633Z,1.46
2022-12-03T12:17:40.743Z,1.43
2022-12-03T12:22:40.813Z,1.42
2022-12-03T12:27:40.811Z,1.42
2022-12-03T12:32:46.636Z,1.40
2022-12-03T12:37:56.808Z,1.38
2022-12-03T12:42:47.817Z,1.37
2022-12-03T12:47:46.584Z,1.42
2022-12-03T12:52:50.854Z,1.43
2022-12-03T12:57:41.143Z,1.45
2022-12-03T13:02:47.552Z,1.48
2022-12-03T13:07:42.225Z,1.43
2022-12-03T13:12:40.921Z,1.39
2022-12-03T13:17:40.901Z,1.34
2022-12-03T13:22:44.389Z,1.31
2022-12-03T13:27:45.568Z,1.28
2022-12-03T13:32:42.180Z,1.26
2022-12-03T13:37:40.931Z,1.25
2022-12-03T13:42:40.959Z,1.24
2022-12-03T13:47:43.191Z,1.28
2022-12-03T13:52:40.969Z,1.32
2022-12-03T13:57:40.959Z,1.34
2022-12-03T14:02:42.953Z,1.38
2022-12-03T14:07:41.079Z,1.46
2022-12-03T14:12:41.133Z,1.44
2022-12-03T14:17:41.177Z,1.39
2022-12-03T14:22:41.052Z,1.33
2022-12-03T14:27:41.107Z,1.30
2022-12-03T14:32:41.196Z,1.25
2022-12-03T14:37:41.084Z,1.22
2022-12-03T14:42:41.078Z,1.18
2022-12-03T14:47:41.107Z,1.16
2022-12-03T14:52:41.099Z,1.17
2022-12-03T14:57:41.129Z,1.19
2022-12-03T15:02:42.972Z,1.16
2022-12-03T15:07:41.144Z,1.15
2022-12-03T15:12:41.209Z,1.13
2022-12-03T15:17:41.205Z,1.14
2022-12-03T15:22:41.183Z,1.13
2022-12-03T15:27:41.211Z,1.12
2022-12-03T15:32:41.210Z,1.10
2022-12-03T15:37:41.315Z,1.08
2022-12-03T15:42:41.204Z,1.07
2022-12-03T15:47:41.367Z,1.06
2022-12-03T15:52:41.222Z,1.03
2022-12-03T15:57:41.560Z,1.01
2022-12-03T16:02:47.500Z,0.99
2022-12-03T16:07:41.416Z,0.95
2022-12-03T16:12:41.260Z,0.91
2022-12-03T16:17:41.374Z,0.87
2022-12-03T16:22:41.319Z,0.85
2022-12-03T16:27:41.321Z,0.86
2022-12-03T16:32:41.359Z,0.81
2022-12-03T16:37:41.434Z,0.81
2022-12-03T16:42:41.325Z,0.80
2022-12-03T16:47:41.409Z,0.79
2022-12-03T16:52:41.460Z,0.78
2022-12-03T16:57:41.388Z,0.76
2022-12-03T17:02:42.265Z,0.76
2022-12-03T17:07:41.486Z,0.77
2022-12-03T17:13:08.414Z,0.75
2022-12-03T17:17:41.448Z,0.75
2022-12-03T17:22:41.526Z,0.74
2022-12-03T17:27:45.049Z,0.72
2022-12-03T17:32:41.651Z,0.73
2022-12-03T17:37:41.500Z,0.75
2022-12-03T17:42:41.643Z,0.77
2022-12-03T17:47:41.488Z,0.74
2022-12-03T17:52:41.490Z,0.75
2022-12-03T17:57:41.589Z,0.75
2022-12-03T18:02:43.013Z,0.75
2022-12-03T18:07:41.656Z,0.75
2022-12-03T18:12:41.893Z,0.74
2022-12-03T18:17:41.652Z,0.72
2022-12-03T18:22:41.796Z,0.69
2022-12-03T18:27:41.574Z,0.69
2022-12-03T18:32:41.723Z,0.72
2022-12-03T18:37:41.718Z,0.74
2022-12-03T18:42:41.662Z,0.73
2022-12-03T18:47:43.448Z,0.73
2022-12-03T18:52:41.637Z,0.65
2022-12-03T18:57:41.670Z,0.64
2022-12-03T19:03:03.020Z,0.60
2022-12-03T19:07:41.752Z,0.60
2022-12-03T19:12:41.797Z,0.58
2022-12-03T19:17:42.127Z,0.54
2022-12-03T19:22:41.723Z,0.57
2022-12-03T19:27:42.328Z,0.57
2022-12-03T19:32:41.809Z,0.57
2022-12-03T19:37:41.858Z,0.55
2022-12-03T19:42:42.305Z,0.57
2022-12-03T19:47:41.773Z,0.56
2022-12-03T19:52:41.823Z,0.54
2022-12-03T19:57:41.762Z,0.55
2022-12-03T20:02:42.502Z,0.53
2022-12-03T20:07:41.864Z,0.51
2022-12-03T20:12:41.807Z,0.51
2022-12-03T20:17:42.008Z,0.51
2022-12-03T20:22:41.816Z,0.52
2022-12-03T20:27:41.889Z,0.50
2022-12-03T20:32:45.238Z,0.48
2022-12-03T20:37:41.866Z,0.47
2022-12-03T20:42:45.350Z,0.44
2022-12-03T20:47:42.008Z,0.45
2022-12-03T20:52:57.623Z,0.47
2022-12-03T20:57:41.913Z,0.47
2022-12-03T21:02:43.712Z,0.45
2022-12-03T21:07:42.033Z,0.44
2022-12-03T21:12:41.937Z,0.46
2022-12-03T21:17:42.191Z,0.44
2022-12-03T21:22:42.205Z,0.40
2022-12-03T21:27:41.961Z,0.43
2022-12-03T21:32:42.010Z,0.41
2022-12-03T21:37:41.993Z,0.40
2022-12-03T21:42:42.019Z,0.38
2022-12-03T21:47:45.662Z,0.40
2022-12-03T21:52:42.034Z,0.42
2022-12-03T21:57:42.151Z,0.38
2022-12-03T22:02:43.650Z,0.37
2022-12-03T22:07:42.206Z,0.37
2022-12-03T22:12:42.088Z,0.40
2022-12-03T22:17:42.162Z,0.40
2022-12-03T22:22:42.168Z,0.40
2022-12-03T22:27:42.110Z,0.41
2022-12-03T22:32:42.162Z,0.39
2022-12-03T22:37:42.148Z,0.38
2022-12-03T22:42:46.322Z,0.37
2022-12-03T22:47:42.242Z,0.35
2022-12-03T22:52:42.167Z,0.34
2022-12-03T22:57:42.340Z,0.32
2022-12-03T23:02:42.824Z,0.34
2022-12-03T23:07:42.281Z,0.33
2022-12-03T23:12:42.280Z,0.30
2022-12-03T23:17:42.237Z,0.33
2022-12-03T23:22:42.313Z,0.33
2022-12-03T23:27:42.777Z,0.32
2022-12-03T23:32:42.319Z,0.33
2022-12-03T23:37:42.639Z,0.34
2022-12-03T23:42:42.308Z,0.34
2022-12-03T23:47:42.335Z,0.36
2022-12-03T23:52:42.473Z,0.37
2022-12-03T23:57:42.411Z,0.36
